createdAt,value
2018-07-25T00:00:21.400Z,24.40
2018-07-25T00:02:50.474Z,24.30
2018-07-25T00:05:19.611Z,24.30
2018-07-25T00:07:48.718Z,24.20
2018-07-25T00:10:18.058Z,24.20
2018-07-25T00:12:47.822Z,24.10
2018-07-25T00:15:17.424Z,24.10
2018-07-25T00:17:46.982Z,24.10
2018-07-25T00:20:16.124Z,24.00
2018-07-25T00:22:45.286Z,24.00
2018-07-25T00:25:14.470Z,24.00
2018-07-25T00:27:43.572Z,23.90
2018-07-25T00:30:12.736Z,23.80
2018-07-25T00:32:43.061Z,23.80
2018-07-25T00:35:12.162Z,23.80
2018-07-25T00:37:41.332Z,23.70
2018-07-25T00:40:11.356Z,23.70
2018-07-25T00:42:40.468Z,23.60
2018-07-25T00:45:10.297Z,23.60
2018-07-25T00:47:39.436Z,23.50
2018-07-25T00:50:08.747Z,23.50
2018-07-25T00:52:37.811Z,23.40
2018-07-25T00:55:06.963Z,23.40
2018-07-25T00:57:36.379Z,23.40
2018-07-25T01:00:05.613Z,23.30
2018-07-25T01:02:34.718Z,23.30
2018-07-25T01:05:03.960Z,23.20
2018-07-25T01:07:33.044Z,23.20
2018-07-25T01:10:02.194Z,23.20
2018-07-25T01:12:31.415Z,23.10
2018-07-25T01:15:00.612Z,23.10
2018-07-25T01:17:30.008Z,23.10
2018-07-25T01:19:59.102Z,23.00
2018-07-25T01:22:28.278Z,23.00
2018-07-25T01:24:57.406Z,23.00
2018-07-25T01:27:26.560Z,23.00
2018-07-25T01:29:55.661Z,22.90
2018-07-25T01:32:24.858Z,22.90
2018-07-25T01:34:54.231Z,22.80
2018-07-25T01:37:23.341Z,22.80
2018-07-25T01:39:52.580Z,22.80
2018-07-25T01:42:22.147Z,22.70
2018-07-25T01:44:51.243Z,22.70
2018-07-25T01:47:20.435Z,22.70
2018-07-25T01:49:49.631Z,22.70
2018-07-25T01:52:18.732Z,22.70
2018-07-25T01:54:47.920Z,22.60
2018-07-25T01:57:17.036Z,22.60
2018-07-25T01:59:46.220Z,22.50
2018-07-25T02:02:15.508Z,22.50
2018-07-25T02:04:47.022Z,22.50
2018-07-25T02:07:16.136Z,22.50
2018-07-25T02:09:45.257Z,22.40
2018-07-25T02:12:14.362Z,22.40
2018-07-25T02:14:44.158Z,22.40
2018-07-25T02:17:13.404Z,22.30
2018-07-25T02:19:42.507Z,22.30
2018-07-25T02:22:11.598Z,22.30
2018-07-25T02:24:40.753Z,22.30
2018-07-25T02:27:09.855Z,22.20
2018-07-25T02:29:39.014Z,22.20
2018-07-25T02:32:08.294Z,22.20
2018-07-25T02:34:37.432Z,22.20
2018-07-25T02:37:06.537Z,22.10
2018-07-25T02:39:35.729Z,22.10
2018-07-25T02:42:04.990Z,22.10
2018-07-25T02:44:34.088Z,22.00
2018-07-25T02:47:03.526Z,22.00
2018-07-25T02:49:32.734Z,22.00
2018-07-25T02:52:02.093Z,22.00
2018-07-25T02:54:31.248Z,21.90
2018-07-25T02:57:00.712Z,21.90
2018-07-25T02:59:29.817Z,21.90
2018-07-25T03:01:58.937Z,21.90
2018-07-25T03:04:28.057Z,21.80
2018-07-25T03:06:57.246Z,21.80
2018-07-25T03:09:26.349Z,21.80
2018-07-25T03:11:55.523Z,21.80
2018-07-25T03:14:24.644Z,21.70
2018-07-25T03:16:53.781Z,21.70
2018-07-25T03:19:22.848Z,21.70
2018-07-25T03:21:52.102Z,21.60
2018-07-25T03:24:21.212Z,21.60
2018-07-25T03:26:50.419Z,21.60
2018-07-25T03:29:19.542Z,21.60
2018-07-25T03:31:48.696Z,21.60
2018-07-25T03:34:17.769Z,21.60
2018-07-25T03:36:47.221Z,21.60
2018-07-25T03:39:17.358Z,21.60
2018-07-25T03:41:46.472Z,21.60
2018-07-25T03:44:15.789Z,21.60
2018-07-25T03:46:45.249Z,21.60
2018-07-25T03:49:14.407Z,21.50
2018-07-25T03:51:43.543Z,21.50
2018-07-25T03:54:12.683Z,21.50
2018-07-25T03:56:41.786Z,21.50
2018-07-25T03:59:10.914Z,21.50
2018-07-25T04:01:40.020Z,21.50
2018-07-25T04:04:10.086Z,21.40
2018-07-25T04:06:39.586Z,21.50
2018-07-25T04:09:09.145Z,21.50
2018-07-25T04:11:38.458Z,21.50
2018-07-25T04:14:07.540Z,21.50
2018-07-25T04:16:36.697Z,21.50
2018-07-25T04:19:06.059Z,21.50
2018-07-25T04:21:36.155Z,21.50
2018-07-25T04:24:05.816Z,21.50
2018-07-25T04:26:35.610Z,21.50
2018-07-25T04:29:05.216Z,21.60
2018-07-25T04:31:34.827Z,21.60
2018-07-25T04:34:03.949Z,21.60
2018-07-25T04:36:33.038Z,21.70
2018-07-25T04:39:03.221Z,21.70
2018-07-25T04:41:32.296Z,21.70
2018-07-25T04:44:01.566Z,21.80
2018-07-25T04:46:30.963Z,21.80
2018-07-25T04:49:00.267Z,21.80
2018-07-25T04:51:29.608Z,21.80
2018-07-25T04:53:58.725Z,21.90
2018-07-25T04:56:27.919Z,21.90
2018-07-25T04:58:57.099Z,22.00
2018-07-25T05:01:26.259Z,22.00
2018-07-25T05:03:55.400Z,22.10
2018-07-25T05:06:24.636Z,22.20
2018-07-25T05:08:53.820Z,22.30
2018-07-25T05:11:22.927Z,22.40
2018-07-25T05:13:52.116Z,22.50
2018-07-25T05:16:21.732Z,22.50
2018-07-25T05:18:51.561Z,22.70
2018-07-25T05:21:20.679Z,22.70
2018-07-25T05:23:50.047Z,22.80
2018-07-25T05:26:19.254Z,22.80
2018-07-25T05:28:48.375Z,22.90
2018-07-25T05:31:17.679Z,23.00
2018-07-25T05:34:05.364Z,23.00
2018-07-25T05:36:34.482Z,23.00
2018-07-25T05:39:04.966Z,23.10
2018-07-25T05:41:34.086Z,23.10
2018-07-25T05:44:03.384Z,23.20
2018-07-25T05:46:32.532Z,23.30
2018-07-25T05:49:02.388Z,23.40
2018-07-25T05:51:31.502Z,23.50
2018-07-25T05:54:00.666Z,23.50
2018-07-25T05:56:30.006Z,23.60
2018-07-25T05:58:59.706Z,23.70
2018-07-25T06:01:29.455Z,23.80
2018-07-25T06:03:58.554Z,23.90
2018-07-25T06:06:27.798Z,24.00
2018-07-25T06:08:56.886Z,24.00
2018-07-25T06:11:26.111Z,24.20
2018-07-25T06:13:55.283Z,24.20
2018-07-25T06:16:24.563Z,24.30
2018-07-25T06:18:53.725Z,24.40
2018-07-25T06:21:23.084Z,24.50
2018-07-25T06:23:52.270Z,24.60
2018-07-25T06:26:21.406Z,24.70
2018-07-25T06:28:50.617Z,24.80
2018-07-25T06:31:19.820Z,24.90
2018-07-25T06:33:56.598Z,25.00
2018-07-25T06:36:29.749Z,25.10
2018-07-25T06:39:06.676Z,25.10
2018-07-25T06:41:45.258Z,25.10
2018-07-25T06:44:26.241Z,25.20
2018-07-25T06:49:58.602Z,25.30
2018-07-25T06:52:45.720Z,25.40
2018-07-25T06:55:19.690Z,25.50
2018-07-25T06:57:57.168Z,25.60
2018-07-25T07:00:32.039Z,25.80
2018-07-25T07:03:06.615Z,26.00
2018-07-25T07:05:43.001Z,26.10
2018-07-25T07:08:24.363Z,26.30
2018-07-25T07:11:01.057Z,26.40
2018-07-25T07:13:35.153Z,26.60
2018-07-25T07:16:09.342Z,26.70
2018-07-25T07:18:46.522Z,26.90
2018-07-25T07:21:19.057Z,27.00
2018-07-25T07:23:51.251Z,27.10
2018-07-25T07:26:22.613Z,27.10
2018-07-25T07:28:55.501Z,27.30
2018-07-25T07:31:29.685Z,27.40
2018-07-25T07:33:59.480Z,27.50
2018-07-25T07:36:33.522Z,27.50
2018-07-25T07:39:09.471Z,27.60
2018-07-25T07:41:41.332Z,27.80
2018-07-25T07:44:16.578Z,27.90
2018-07-25T07:46:58.381Z,28.10
2018-07-25T07:52:11.326Z,28.40
2018-07-25T07:54:41.405Z,28.50
2018-07-25T07:57:14.350Z,28.60
2018-07-25T07:59:48.589Z,28.70
2018-07-25T08:02:19.747Z,28.80
2018-07-25T08:04:50.485Z,29.00
2018-07-25T08:07:24.160Z,29.20
2018-07-25T08:09:58.151Z,29.40
2018-07-25T08:12:31.687Z,29.40
2018-07-25T08:15:03.391Z,29.50
2018-07-25T08:17:34.531Z,29.60
2018-07-25T08:20:04.334Z,29.60
2018-07-25T08:22:34.309Z,29.70
2018-07-25T08:25:10.514Z,29.70
2018-07-25T08:27:43.825Z,29.80
2018-07-25T08:30:15.561Z,30.00
2018-07-25T08:32:45.407Z,30.20
2018-07-25T08:35:14.666Z,30.40
2018-07-25T08:37:43.765Z,30.50
2018-07-25T08:40:12.924Z,30.70
2018-07-25T08:42:42.024Z,30.80
2018-07-25T08:45:11.166Z,30.90
2018-07-25T08:47:41.541Z,30.90
2018-07-25T08:50:11.179Z,30.90
2018-07-25T08:52:41.166Z,30.90
2018-07-25T08:55:10.888Z,30.90
2018-07-25T08:57:42.942Z,30.90
2018-07-25T09:00:18.116Z,30.90
2018-07-25T09:02:50.514Z,30.90
2018-07-25T09:05:19.963Z,30.90
2018-07-25T09:07:49.459Z,30.80
2018-07-25T09:10:18.741Z,30.80
2018-07-25T09:12:48.285Z,30.60
2018-07-25T09:15:17.872Z,30.50
2018-07-25T09:17:47.242Z,30.50
2018-07-25T09:20:16.499Z,30.60
2018-07-25T09:22:47.329Z,30.60
2018-07-25T09:25:17.942Z,30.70
2018-07-25T09:27:47.373Z,30.70
2018-07-25T09:30:16.984Z,30.80
2018-07-25T09:32:54.924Z,30.80
2018-07-25T09:35:31.312Z,30.80
2018-07-25T09:38:06.643Z,30.90
2018-07-25T09:40:39.903Z,30.90
2018-07-25T09:43:12.473Z,31.00
2018-07-25T09:45:47.317Z,31.00
2018-07-25T09:48:19.070Z,31.20
2018-07-25T09:50:49.142Z,31.40
2018-07-25T09:53:20.797Z,31.60
2018-07-25T09:55:49.957Z,31.80
2018-07-25T09:58:20.699Z,31.80
2018-07-25T10:00:51.343Z,31.90
2018-07-25T10:03:21.830Z,32.00
2018-07-25T10:05:52.519Z,32.10
2018-07-25T10:08:22.276Z,32.20
2018-07-25T10:10:51.671Z,32.30
2018-07-25T10:13:20.840Z,32.50
2018-07-25T10:15:50.015Z,32.70
2018-07-25T10:18:19.238Z,32.70
2018-07-25T10:20:48.503Z,32.70
2018-07-25T10:23:23.838Z,32.80
2018-07-25T10:25:57.848Z,32.80
2018-07-25T10:28:32.848Z,32.90
2018-07-25T10:31:04.642Z,33.10
2018-07-25T10:33:35.384Z,33.10
2018-07-25T10:36:08.728Z,33.20
2018-07-25T10:38:41.530Z,33.30
2018-07-25T10:41:15.729Z,33.50
2018-07-25T10:43:50.623Z,33.60
2018-07-25T10:46:24.354Z,33.80
2018-07-25T10:49:01.937Z,33.90
2018-07-25T10:51:32.032Z,33.70
2018-07-25T10:54:09.359Z,33.60
2018-07-25T10:56:44.652Z,33.40
2018-07-25T10:59:17.852Z,33.30
2018-07-25T11:01:57.185Z,33.10
2018-07-25T11:04:37.770Z,33.10
2018-07-25T11:07:09.548Z,33.10
2018-07-25T11:10:00.738Z,33.10
2018-07-25T11:12:34.671Z,33.20
2018-07-25T11:15:08.426Z,33.20
2018-07-25T11:17:40.871Z,33.30
2018-07-25T11:20:13.036Z,33.40
2018-07-25T11:22:50.258Z,33.50
2018-07-25T11:25:24.148Z,33.50
2018-07-25T11:27:58.548Z,33.50
2018-07-25T11:30:27.979Z,33.50
2018-07-25T11:32:57.815Z,33.60
2018-07-25T11:35:27.400Z,33.70
2018-07-25T11:37:58.234Z,33.90
2018-07-25T11:40:31.488Z,34.40
2018-07-25T11:43:08.210Z,35.10
2018-07-25T11:45:39.608Z,35.90
2018-07-25T11:48:12.461Z,36.60
2018-07-25T11:50:44.031Z,36.70
2018-07-25T11:53:18.889Z,36.60
2018-07-25T11:55:49.854Z,36.90
2018-07-25T11:58:23.426Z,37.50
2018-07-25T12:00:57.489Z,38.40
2018-07-25T12:03:28.229Z,39.20
2018-07-25T12:05:58.929Z,40.00
2018-07-25T12:08:35.604Z,40.80
2018-07-25T12:11:09.842Z,41.50
2018-07-25T12:13:46.395Z,42.40
2018-07-25T12:16:19.410Z,43.20
2018-07-25T12:18:52.470Z,43.70
2018-07-25T12:21:24.875Z,44.30
2018-07-25T12:23:55.862Z,45.00
2018-07-25T12:26:26.490Z,45.50
2018-07-25T12:28:59.064Z,45.90
2018-07-25T12:31:31.293Z,45.40
2018-07-25T12:34:05.201Z,44.50
2018-07-25T12:36:39.515Z,44.40
2018-07-25T12:39:10.825Z,45.00
2018-07-25T12:41:42.191Z,45.60
2018-07-25T12:47:00.943Z,46.60
2018-07-25T12:49:34.332Z,46.90
2018-07-25T12:52:06.461Z,47.40
2018-07-25T12:54:42.866Z,47.90
2018-07-25T12:57:22.386Z,48.30
2018-07-25T12:59:57.712Z,48.50
2018-07-25T13:02:32.745Z,48.50
2018-07-25T13:05:08.609Z,48.60
2018-07-25T13:07:47.362Z,48.70
2018-07-25T13:10:19.938Z,49.10
2018-07-25T13:12:52.762Z,49.40
2018-07-25T13:15:24.967Z,49.70
2018-07-25T13:17:56.843Z,49.90
2018-07-25T13:20:29.964Z,50.10
2018-07-25T13:23:00.204Z,50.10
2018-07-25T13:25:29.329Z,49.80
2018-07-25T13:27:59.091Z,49.60
2018-07-25T13:30:28.594Z,49.70
2018-07-25T13:33:00.015Z,49.70
2018-07-25T13:35:31.330Z,49.70
2018-07-25T13:38:05.509Z,49.60
2018-07-25T13:40:35.170Z,49.50
2018-07-25T13:43:07.568Z,49.30
2018-07-25T13:45:39.212Z,49.40
2018-07-25T13:48:09.583Z,49.50
2018-07-25T13:50:38.750Z,49.40
2018-07-25T13:53:08.122Z,49.20
2018-07-25T13:55:37.289Z,48.30
2018-07-25T13:58:06.984Z,47.50
2018-07-25T14:00:36.669Z,47.70
2018-07-25T14:03:06.615Z,47.70
2018-07-25T14:05:36.091Z,47.00
2018-07-25T14:08:05.352Z,46.10
2018-07-25T14:10:34.507Z,46.10
2018-07-25T14:13:03.656Z,46.60
2018-07-25T14:15:33.184Z,47.00
2018-07-25T14:18:02.543Z,47.40
2018-07-25T14:20:31.668Z,47.90
2018-07-25T14:23:00.921Z,48.10
2018-07-25T14:25:30.033Z,48.00
2018-07-25T14:27:59.231Z,47.70
2018-07-25T14:30:28.417Z,47.10
2018-07-25T14:32:57.576Z,46.10
2018-07-25T14:35:26.725Z,44.80
2018-07-25T14:37:56.166Z,43.60
2018-07-25T14:40:25.378Z,42.90
2018-07-25T14:42:54.599Z,42.90
2018-07-25T14:45:23.699Z,43.30
2018-07-25T14:47:52.927Z,43.70
2018-07-25T14:50:22.083Z,44.10
2018-07-25T14:52:51.463Z,44.50
2018-07-25T14:55:21.912Z,44.80
2018-07-25T14:57:52.209Z,44.60
2018-07-25T15:00:21.932Z,43.60
2018-07-25T15:02:52.421Z,42.70
2018-07-25T15:05:21.758Z,42.40
2018-07-25T15:07:51.900Z,42.80
2018-07-25T15:10:21.025Z,43.60
2018-07-25T15:12:55.690Z,44.30
2018-07-25T15:15:25.796Z,45.00
2018-07-25T15:17:56.089Z,45.60
2018-07-25T15:20:26.323Z,46.20
2018-07-25T15:22:56.172Z,46.30
2018-07-25T15:25:26.260Z,46.30
2018-07-25T15:28:00.070Z,46.40
2018-07-25T15:30:31.134Z,46.70
2018-07-25T15:33:00.511Z,47.00
2018-07-25T15:35:37.074Z,47.40
2018-07-25T15:38:06.549Z,47.50
2018-07-25T15:40:40.319Z,47.40
2018-07-25T15:43:10.593Z,47.00
2018-07-25T15:45:40.907Z,46.00
2018-07-25T15:48:11.508Z,44.70
2018-07-25T15:50:43.009Z,43.10
2018-07-25T15:53:12.546Z,41.40
2018-07-25T15:55:41.751Z,39.60
2018-07-25T15:58:11.463Z,38.00
2018-07-25T16:00:40.932Z,36.60
2018-07-25T16:03:10.714Z,35.40
2018-07-25T16:05:40.428Z,34.40
2018-07-25T16:08:10.014Z,33.60
2018-07-25T16:10:39.385Z,32.90
2018-07-25T16:13:08.769Z,32.30
2018-07-25T16:15:37.948Z,31.80
2018-07-25T16:18:07.393Z,31.40
2018-07-25T16:20:36.651Z,31.10
2018-07-25T16:23:05.975Z,31.10
2018-07-25T16:25:35.356Z,31.10
2018-07-25T16:28:04.655Z,31.40
2018-07-25T16:30:33.857Z,31.50
2018-07-25T16:33:03.726Z,31.50
2018-07-25T16:35:33.548Z,31.40
2018-07-25T16:38:03.250Z,31.30
2018-07-25T16:40:32.500Z,31.10
2018-07-25T16:43:01.738Z,30.80
2018-07-25T16:45:31.006Z,30.70
2018-07-25T16:48:00.148Z,30.70
2018-07-25T16:50:29.376Z,31.00
2018-07-25T16:52:58.836Z,31.50
2018-07-25T16:55:29.102Z,32.10
2018-07-25T16:57:58.358Z,32.80
2018-07-25T17:00:27.655Z,33.30
2018-07-25T17:02:57.661Z,33.80
2018-07-25T17:05:27.540Z,34.20
2018-07-25T17:07:58.690Z,34.40
2018-07-25T17:10:28.424Z,34.50
2018-07-25T17:12:58.376Z,34.70
2018-07-25T17:15:27.679Z,35.00
2018-07-25T17:17:57.272Z,35.30
2018-07-25T17:20:26.712Z,35.50
2018-07-25T17:22:56.127Z,35.60
2018-07-25T17:25:25.984Z,35.70
2018-07-25T17:27:55.264Z,35.70
2018-07-25T17:30:24.528Z,35.60
2018-07-25T17:32:54.519Z,35.40
2018-07-25T17:35:25.340Z,35.30
2018-07-25T17:37:58.292Z,35.00
2018-07-25T17:40:28.505Z,34.60
2018-07-25T17:42:57.792Z,34.20
2018-07-25T17:45:26.996Z,34.00
2018-07-25T17:47:56.443Z,33.90
2018-07-25T17:50:25.687Z,33.70
2018-07-25T17:52:54.898Z,33.40
2018-07-25T17:55:24.095Z,33.00
2018-07-25T17:57:53.866Z,32.70
2018-07-25T18:00:23.154Z,32.30
2018-07-25T18:02:52.460Z,32.00
2018-07-25T18:05:22.497Z,31.70
2018-07-25T18:07:52.557Z,31.50
2018-07-25T18:10:22.309Z,31.30
2018-07-25T18:12:56.381Z,31.10
2018-07-25T18:15:25.857Z,30.90
2018-07-25T18:17:55.531Z,30.70
2018-07-25T18:20:25.539Z,30.60
2018-07-25T18:22:55.496Z,30.50
2018-07-25T18:25:25.880Z,30.40
2018-07-25T18:27:56.065Z,30.20
2018-07-25T18:30:25.297Z,30.10
2018-07-25T18:32:57.098Z,30.00
2018-07-25T18:35:28.898Z,29.90
2018-07-25T18:37:58.921Z,29.80
2018-07-25T18:40:28.853Z,29.70
2018-07-25T18:42:59.494Z,29.60
2018-07-25T18:45:30.834Z,29.50
2018-07-25T18:48:01.353Z,29.40
2018-07-25T18:50:31.935Z,29.30
2018-07-25T18:53:04.730Z,29.10
2018-07-25T18:55:34.147Z,28.90
2018-07-25T18:58:04.087Z,28.80
2018-07-25T19:00:34.605Z,28.60
2018-07-25T19:03:07.167Z,28.50
2018-07-25T19:05:40.255Z,28.40
2018-07-25T19:08:12.026Z,28.30
2018-07-25T19:10:42.557Z,28.20
2018-07-25T19:13:17.979Z,28.10
2018-07-25T19:15:48.822Z,27.90
2018-07-25T19:18:19.197Z,27.90
2018-07-25T19:20:49.881Z,27.80
2018-07-25T19:23:21.016Z,27.70
2018-07-25T19:25:51.690Z,27.60
2018-07-25T19:28:39.040Z,27.60
2018-07-25T19:31:11.702Z,27.50
2018-07-25T19:33:42.222Z,27.40
2018-07-25T19:36:12.618Z,27.30
2018-07-25T19:38:43.733Z,27.20
2018-07-25T19:41:15.695Z,27.10
2018-07-25T19:43:46.768Z,27.10
2018-07-25T19:46:19.259Z,27.00
2018-07-25T19:48:50.620Z,27.00
2018-07-25T19:51:23.199Z,26.90
2018-07-25T19:53:54.483Z,26.80
2018-07-25T19:56:29.596Z,26.70
2018-07-25T19:59:00.454Z,26.60
2018-07-25T20:01:30.604Z,26.50
2018-07-25T20:04:00.514Z,26.50
2018-07-25T20:06:29.765Z,26.40
2018-07-25T20:08:59.068Z,26.30
2018-07-25T20:11:29.162Z,26.30
2018-07-25T20:14:04.489Z,26.20
2018-07-25T20:16:34.817Z,26.10
2018-07-25T20:19:04.132Z,26.00
2018-07-25T20:21:33.964Z,25.90
2018-07-25T20:24:03.852Z,25.90
2018-07-25T20:26:33.736Z,25.80
2018-07-25T20:29:03.368Z,25.80
2018-07-25T20:31:34.355Z,25.70
2018-07-25T20:34:03.853Z,25.70
2018-07-25T20:36:33.057Z,25.60
2018-07-25T20:39:02.243Z,25.60
2018-07-25T20:41:32.162Z,25.50
2018-07-25T20:44:04.214Z,25.40
2018-07-25T20:46:33.491Z,25.30
2018-07-25T20:49:03.296Z,25.20
2018-07-25T20:51:33.566Z,25.20
2018-07-25T20:54:03.282Z,25.10
2018-07-25T20:56:33.514Z,25.10
2018-07-25T20:59:03.444Z,25.00
2018-07-25T21:01:33.157Z,25.00
2018-07-25T21:04:03.038Z,24.90
2018-07-25T21:06:33.675Z,24.80
2018-07-25T21:09:03.822Z,24.80
2018-07-25T21:11:33.239Z,24.70
2018-07-25T21:14:02.570Z,24.60
2018-07-25T21:16:32.451Z,24.60
2018-07-25T21:19:01.749Z,24.50
2018-07-25T21:21:31.634Z,24.50
2018-07-25T21:24:01.614Z,24.40
2018-07-25T21:26:31.704Z,24.30
2018-07-25T21:29:01.675Z,24.30
2018-07-25T21:31:31.901Z,24.20
2018-07-25T21:34:02.124Z,24.20
2018-07-25T21:36:32.505Z,24.10
2018-07-25T21:39:02.538Z,24.10
2018-07-25T21:41:38.785Z,24.00
2018-07-25T21:44:22.886Z,24.00
2018-07-25T21:46:54.055Z,23.90
2018-07-25T21:49:23.729Z,23.90
2018-07-25T21:51:52.946Z,23.90
2018-07-25T21:54:22.845Z,23.90
2018-07-25T21:56:52.031Z,23.90
2018-07-25T21:59:22.465Z,23.80
2018-07-25T22:01:52.075Z,23.80
2018-07-25T22:04:21.279Z,23.80
2018-07-25T22:06:50.495Z,23.70
2018-07-25T22:09:19.669Z,23.70
2018-07-25T22:11:48.916Z,23.60
2018-07-25T22:14:18.045Z,23.60
2018-07-25T22:16:47.338Z,23.50
2018-07-25T22:19:16.603Z,23.50
2018-07-25T22:21:45.802Z,23.40
2018-07-25T22:24:14.894Z,23.30
2018-07-25T22:26:44.149Z,23.30
2018-07-25T22:29:13.328Z,23.20
2018-07-25T22:31:43.651Z,23.20
2018-07-25T22:34:13.078Z,23.10
2018-07-25T22:36:42.374Z,23.10
2018-07-25T22:39:12.145Z,23.00
2018-07-25T22:41:41.236Z,23.00
2018-07-25T22:44:10.380Z,23.00
2018-07-25T22:46:39.499Z,22.90
2018-07-25T22:49:08.606Z,22.90
2018-07-25T22:51:38.055Z,22.90
2018-07-25T22:54:07.208Z,22.90
2018-07-25T22:56:36.312Z,22.80
2018-07-25T22:59:05.747Z,22.80
2018-07-25T23:01:34.900Z,22.80
2018-07-25T23:04:04.338Z,22.80
2018-07-25T23:06:33.685Z,22.70
2018-07-25T23:09:02.997Z,22.70
2018-07-25T23:11:32.617Z,22.60
2018-07-25T23:14:02.140Z,22.60
2018-07-25T23:16:31.542Z,22.60
2018-07-25T23:19:00.701Z,22.60
2018-07-25T23:21:29.883Z,22.50
2018-07-25T23:23:59.196Z,22.50
2018-07-25T23:26:28.314Z,22.40
2018-07-25T23:28:57.479Z,22.40
2018-07-25T23:31:26.595Z,22.40
2018-07-25T23:33:55.964Z,22.40
2018-07-25T23:36:25.109Z,22.40
2018-07-25T23:38:54.274Z,22.40
2018-07-25T23:41:23.891Z,22.30
2018-07-25T23:43:53.181Z,22.30
2018-07-25T23:46:22.954Z,22.20
2018-07-25T23:48:52.244Z,22.20
2018-07-25T23:51:21.442Z,22.10
2018-07-25T23:53:50.554Z,22.10
2018-07-25T23:56:20.038Z,22.10
2018-07-25T23:58:49.172Z,22.10
